createdAt,value
2023-03-25T00:01:35.544Z,79.29
2023-03-25T00:04:04.547Z,79.45
2023-03-25T00:06:34.843Z,79.04
2023-03-25T00:09:04.210Z,79.48
2023-03-25T00:11:31.928Z,78.98
2023-03-25T00:14:00.194Z,79.28
2023-03-25T00:16:27.961Z,79.56
2023-03-25T00:18:56.233Z,79.72
2023-03-25T00:21:24.201Z,79.61
2023-03-25T00:23:51.886Z,79.42
2023-03-25T00:26:20.016Z,78.94
2023-03-25T00:28:47.721Z,78.67
2023-03-25T00:31:15.872Z,78.45
2023-03-25T00:33:45.356Z,78.37
2023-03-25T00:36:15.065Z,77.99
2023-03-25T00:38:43.729Z,78.44
2023-03-25T00:41:11.656Z,78.21
2023-03-25T00:43:39.623Z,78.28
2023-03-25T00:46:07.559Z,78.16
2023-03-25T00:48:35.187Z,78.11
2023-03-25T00:51:07.471Z,78.52
2023-03-25T00:53:35.554Z,78.32
2023-03-25T00:56:03.566Z,78.14
2023-03-25T00:58:31.234Z,77.81
2023-03-25T01:00:59.421Z,77.88
2023-03-25T01:03:29.116Z,77.52
2023-03-25T01:05:58.104Z,77.63
2023-03-25T01:08:30.186Z,76.76
2023-03-25T01:10:57.807Z,76.85
2023-03-25T01:13:25.443Z,77.05
2023-03-25T01:15:53.448Z,76.82
2023-03-25T01:18:21.334Z,76.53
2023-03-25T01:20:49.576Z,76.89
2023-03-25T01:23:17.424Z,76.58
2023-03-25T01:25:45.009Z,76.70
2023-03-25T01:28:12.654Z,76.21
2023-03-25T01:30:40.650Z,76.00
2023-03-25T01:33:08.662Z,76.51
2023-03-25T01:35:36.439Z,76.64
2023-03-25T01:38:04.731Z,76.17
2023-03-25T01:40:32.309Z,76.40
2023-03-25T01:42:59.878Z,76.06
2023-03-25T01:45:27.892Z,75.90
2023-03-25T01:47:55.713Z,76.10
2023-03-25T01:50:23.769Z,76.12
2023-03-25T01:52:51.687Z,76.15
2023-03-25T01:55:20.449Z,76.30
2023-03-25T01:57:48.443Z,76.70
2023-03-25T02:00:16.378Z,76.42
2023-03-25T02:02:44.020Z,76.15
2023-03-25T02:05:11.834Z,76.12
2023-03-25T02:07:39.495Z,75.91
2023-03-25T02:10:07.935Z,76.02
2023-03-25T02:12:35.858Z,76.43
2023-03-25T02:15:03.995Z,75.69
2023-03-25T02:17:31.627Z,75.84
2023-03-25T02:20:09.156Z,75.86
2023-03-25T02:22:38.145Z,75.43
2023-03-25T02:25:05.748Z,75.93
2023-03-25T02:27:34.112Z,75.49
2023-03-25T02:30:01.781Z,75.14
2023-03-25T02:32:34.181Z,75.46
2023-03-25T02:35:02.189Z,75.16
2023-03-25T02:37:29.759Z,75.04
2023-03-25T02:39:59.925Z,74.94
2023-03-25T02:42:27.581Z,75.10
2023-03-25T02:44:55.796Z,75.19
2023-03-25T02:47:23.412Z,74.65
2023-03-25T02:49:51.260Z,74.83
2023-03-25T02:52:18.824Z,74.80
2023-03-25T02:54:47.650Z,74.26
2023-03-25T02:57:15.968Z,74.47
2023-03-25T02:59:43.609Z,74.56
2023-03-25T03:02:11.888Z,74.52
2023-03-25T03:04:39.615Z,74.68
2023-03-25T03:07:08.255Z,75.02
2023-03-25T03:09:36.251Z,74.86
2023-03-25T03:12:04.117Z,75.02
2023-03-25T03:14:31.694Z,75.37
2023-03-25T03:17:00.801Z,75.33
2023-03-25T03:19:28.693Z,75.81
2023-03-25T03:21:56.664Z,76.03
2023-03-25T03:24:24.475Z,76.06
2023-03-25T03:26:53.448Z,76.48
2023-03-25T03:29:21.106Z,76.45
2023-03-25T03:32:06.120Z,75.82
2023-03-25T03:34:37.116Z,75.61
2023-03-25T03:37:04.673Z,75.49
2023-03-25T03:39:32.696Z,75.49
2023-03-25T03:42:00.428Z,74.82
2023-03-25T03:44:28.001Z,74.97
2023-03-25T03:46:55.952Z,74.42
2023-03-25T03:49:23.568Z,74.95
2023-03-25T03:51:51.148Z,74.50
2023-03-25T03:54:18.721Z,74.48
2023-03-25T03:56:46.804Z,74.08
2023-03-25T03:59:14.816Z,74.63
2023-03-25T04:01:46.769Z,74.11
2023-03-25T04:04:14.386Z,74.52
2023-03-25T04:06:42.248Z,75.33
2023-03-25T04:09:09.924Z,75.21
2023-03-25T04:11:38.064Z,75.69
2023-03-25T04:14:05.638Z,75.82
2023-03-25T04:16:36.029Z,76.04
2023-03-25T04:19:04.133Z,75.71
2023-03-25T04:21:31.708Z,76.38
2023-03-25T04:24:01.846Z,75.85
2023-03-25T04:26:29.782Z,75.90
2023-03-25T04:29:00.591Z,76.29
2023-03-25T04:31:31.012Z,76.39
2023-03-25T04:33:58.918Z,76.91
2023-03-25T04:36:29.110Z,76.74
2023-03-25T04:38:56.948Z,76.68
2023-03-25T04:41:24.509Z,76.53
2023-03-25T04:43:52.446Z,76.55
2023-03-25T04:46:20.172Z,76.04
2023-03-25T04:48:48.067Z,75.69
2023-03-25T04:51:15.612Z,75.27
2023-03-25T04:53:43.249Z,75.31
2023-03-25T04:56:13.162Z,75.19
2023-03-25T04:58:40.863Z,75.67
2023-03-25T05:01:11.514Z,75.41
2023-03-25T05:03:40.215Z,74.73
2023-03-25T05:06:09.032Z,75.39
2023-03-25T05:08:36.627Z,75.70
2023-03-25T05:11:04.692Z,75.64
2023-03-25T05:13:32.623Z,75.51
2023-03-25T05:16:00.311Z,75.26
2023-03-25T05:18:27.931Z,75.87
2023-03-25T05:20:56.891Z,76.29
2023-03-25T05:23:24.970Z,76.42
2023-03-25T05:25:53.890Z,76.41
2023-03-25T05:28:22.159Z,76.42
2023-03-25T05:30:49.761Z,76.67
2023-03-25T05:33:17.344Z,76.28
2023-03-25T05:35:45.093Z,75.83
2023-03-25T05:38:14.227Z,76.01
2023-03-25T05:40:41.792Z,75.98
2023-03-25T05:43:09.383Z,75.91
2023-03-25T05:45:37.329Z,76.60
2023-03-25T05:48:05.135Z,76.32
2023-03-25T05:50:33.386Z,76.03
2023-03-25T05:53:01.079Z,76.14
2023-03-25T05:55:28.691Z,76.52
2023-03-25T05:57:57.019Z,76.49
2023-03-25T06:00:24.765Z,77.02
2023-03-25T06:02:52.823Z,76.84
2023-03-25T06:05:23.867Z,76.98
2023-03-25T06:07:51.717Z,77.35
2023-03-25T06:10:19.281Z,77.59
2023-03-25T06:12:47.389Z,77.70
2023-03-25T06:15:15.813Z,77.65
2023-03-25T06:17:46.731Z,77.35
2023-03-25T06:20:14.344Z,77.48
2023-03-25T06:22:42.924Z,77.55
2023-03-25T06:25:10.473Z,77.21
2023-03-25T06:27:40.853Z,77.08
2023-03-25T06:30:08.467Z,76.72
2023-03-25T06:32:36.198Z,76.49
2023-03-25T06:35:04.115Z,76.27
2023-03-25T06:37:31.766Z,76.28
2023-03-25T06:39:59.956Z,76.29
2023-03-25T06:42:27.538Z,76.17
2023-03-25T06:44:55.158Z,75.86
2023-03-25T06:47:22.784Z,76.64
2023-03-25T06:49:50.435Z,76.00
2023-03-25T06:52:18.612Z,75.59
2023-03-25T06:54:46.242Z,76.08
2023-03-25T06:57:14.262Z,76.31
2023-03-25T06:59:41.919Z,76.11
2023-03-25T07:02:09.551Z,76.59
2023-03-25T07:04:37.718Z,76.24
2023-03-25T07:07:05.409Z,76.32
2023-03-25T07:09:33.021Z,76.20
2023-03-25T07:12:00.679Z,75.87
2023-03-25T07:14:28.381Z,75.44
2023-03-25T07:16:56.851Z,75.91
2023-03-25T07:19:24.400Z,76.27
2023-03-25T07:21:52.106Z,76.90
2023-03-25T07:24:19.701Z,77.30
2023-03-25T07:26:47.360Z,77.33
2023-03-25T07:29:15.597Z,77.62
2023-03-25T07:31:43.263Z,78.08
2023-03-25T07:34:10.858Z,78.08
2023-03-25T07:36:38.556Z,78.49
2023-03-25T07:39:08.057Z,78.56
2023-03-25T07:41:36.027Z,78.19
2023-03-25T07:44:03.709Z,78.81
2023-03-25T07:46:31.628Z,78.84
2023-03-25T07:48:59.307Z,79.16
2023-03-25T07:51:26.957Z,78.81
2023-03-25T07:53:55.693Z,78.88
2023-03-25T07:56:32.796Z,79.18
2023-03-25T07:59:00.441Z,78.44
2023-03-25T08:01:28.036Z,78.34
2023-03-25T08:03:56.033Z,77.74
2023-03-25T08:06:23.853Z,76.98
2023-03-25T08:08:51.597Z,76.89
2023-03-25T08:11:19.331Z,76.37
2023-03-25T08:13:46.996Z,76.30
2023-03-25T08:16:15.109Z,75.77
2023-03-25T08:18:45.334Z,75.67
2023-03-25T08:21:13.218Z,75.41
2023-03-25T08:23:41.217Z,75.47
2023-03-25T08:26:09.223Z,75.31
2023-03-25T08:28:37.139Z,75.37
2023-03-25T08:31:05.467Z,75.45
2023-03-25T08:33:34.694Z,74.94
2023-03-25T08:36:02.582Z,75.06
2023-03-25T08:38:34.330Z,74.93
2023-03-25T08:41:03.122Z,74.90
2023-03-25T08:43:31.391Z,74.92
2023-03-25T08:45:59.140Z,74.82
2023-03-25T08:48:26.952Z,74.90
2023-03-25T08:50:54.654Z,75.02
2023-03-25T08:53:23.261Z,75.47
2023-03-25T08:55:51.466Z,75.44
2023-03-25T08:58:19.537Z,75.39
2023-03-25T09:00:47.301Z,74.67
2023-03-25T09:03:15.258Z,74.15
2023-03-25T09:05:44.686Z,73.40
2023-03-25T09:08:12.390Z,72.62
2023-03-25T09:10:40.244Z,72.54
2023-03-25T09:13:08.019Z,72.63
2023-03-25T09:15:35.887Z,72.60
2023-03-25T09:18:03.892Z,72.08
2023-03-25T09:20:31.940Z,72.29
2023-03-25T09:22:59.712Z,72.53
2023-03-25T09:25:27.669Z,71.92
2023-03-25T09:27:55.980Z,71.93
2023-03-25T09:30:23.911Z,71.60
2023-03-25T09:32:51.770Z,72.03
2023-03-25T09:35:19.569Z,72.17
2023-03-25T09:37:51.818Z,71.94
2023-03-25T09:40:20.062Z,70.99
2023-03-25T09:42:48.315Z,70.44
2023-03-25T09:45:16.062Z,70.11
2023-03-25T09:47:44.021Z,70.11
2023-03-25T09:50:11.753Z,70.05
2023-03-25T09:52:39.647Z,70.21
2023-03-25T09:55:07.826Z,70.78
2023-03-25T09:57:37.756Z,70.51
2023-03-25T10:00:07.019Z,70.33
2023-03-25T10:02:34.938Z,69.32
2023-03-25T10:05:02.701Z,69.19
2023-03-25T10:07:30.862Z,68.20
2023-03-25T10:09:59.268Z,67.67
2023-03-25T10:12:27.081Z,67.61
2023-03-25T10:14:54.767Z,67.70
2023-03-25T10:17:22.835Z,67.03
2023-03-25T10:19:54.367Z,67.72
2023-03-25T10:22:22.596Z,67.66
2023-03-25T10:24:50.494Z,67.71
2023-03-25T10:27:18.237Z,67.71
2023-03-25T10:29:45.968Z,67.75
2023-03-25T10:32:16.322Z,67.33
2023-03-25T10:34:46.998Z,67.96
2023-03-25T10:37:15.479Z,67.24
2023-03-25T10:39:45.956Z,66.73
2023-03-25T10:42:14.585Z,65.85
2023-03-25T10:44:43.662Z,65.75
2023-03-25T10:47:11.496Z,65.78
2023-03-25T10:49:39.223Z,65.32
2023-03-25T10:52:07.297Z,65.06
2023-03-25T10:54:35.168Z,64.94
2023-03-25T10:57:03.756Z,64.58
2023-03-25T10:59:31.811Z,64.84
2023-03-25T11:02:00.020Z,64.57
2023-03-25T11:04:28.060Z,64.21
2023-03-25T11:06:55.964Z,62.80
2023-03-25T11:09:24.617Z,60.69
2023-03-25T11:11:52.605Z,60.74
2023-03-25T11:14:21.761Z,60.25
2023-03-25T11:16:49.722Z,60.50
2023-03-25T11:19:17.589Z,61.38
2023-03-25T11:21:46.234Z,60.51
2023-03-25T11:24:14.705Z,58.64
2023-03-25T11:26:42.588Z,58.73
2023-03-25T11:29:10.606Z,59.90
2023-03-25T11:31:38.535Z,60.91
2023-03-25T11:34:06.921Z,63.12
2023-03-25T11:36:35.470Z,64.84
2023-03-25T11:39:04.839Z,66.01
2023-03-25T11:41:32.902Z,66.99
2023-03-25T11:44:00.938Z,68.22
2023-03-25T11:46:29.332Z,69.67
2023-03-25T11:48:57.294Z,69.97
2023-03-25T11:51:25.232Z,70.07
2023-03-25T11:53:53.129Z,70.59
2023-03-25T11:56:21.076Z,71.15
2023-03-25T11:58:50.143Z,71.14
2023-03-25T12:01:18.092Z,71.40
2023-03-25T12:03:46.148Z,71.30
2023-03-25T12:06:14.164Z,71.33
2023-03-25T12:08:42.189Z,71.51
2023-03-25T12:11:11.293Z,71.78
2023-03-25T12:13:39.146Z,71.85
2023-03-25T12:16:08.314Z,72.21
2023-03-25T12:18:36.278Z,72.65
2023-03-25T12:21:04.181Z,72.94
2023-03-25T12:23:32.869Z,72.76
2023-03-25T12:26:01.044Z,72.06
2023-03-25T12:28:30.816Z,69.90
2023-03-25T12:30:59.350Z,68.33
2023-03-25T12:33:28.431Z,68.14
2023-03-25T12:35:56.748Z,69.24
2023-03-25T12:38:24.869Z,70.34
2023-03-25T12:40:52.994Z,71.24
2023-03-25T12:43:21.307Z,72.11
2023-03-25T12:45:49.484Z,72.61
2023-03-25T12:48:17.893Z,73.55
2023-03-25T12:50:45.773Z,74.43
2023-03-25T12:53:13.784Z,74.10
2023-03-25T12:55:41.964Z,73.55
2023-03-25T12:58:09.805Z,72.46
2023-03-25T13:00:38.131Z,71.61
2023-03-25T13:03:06.140Z,70.47
2023-03-25T13:05:34.514Z,70.22
2023-03-25T13:08:02.581Z,69.35
2023-03-25T13:10:30.470Z,69.17
2023-03-25T13:12:58.923Z,68.57
2023-03-25T13:15:27.976Z,67.83
2023-03-25T13:17:58.079Z,68.07
2023-03-25T13:20:26.278Z,67.64
2023-03-25T13:22:54.219Z,67.48
2023-03-25T13:25:23.267Z,66.63
2023-03-25T13:27:52.174Z,66.01
2023-03-25T13:30:20.221Z,65.54
2023-03-25T13:32:50.660Z,65.05
2023-03-25T13:35:18.919Z,64.93
2023-03-25T13:37:47.454Z,64.70
2023-03-25T13:40:15.467Z,64.61
2023-03-25T13:42:43.294Z,64.56
2023-03-25T13:45:11.249Z,64.90
2023-03-25T13:47:39.519Z,65.64
2023-03-25T13:50:08.378Z,66.13
2023-03-25T13:52:36.720Z,67.19
2023-03-25T13:55:04.676Z,69.14
2023-03-25T13:57:32.411Z,69.26
2023-03-25T14:00:00.306Z,69.44
2023-03-25T14:02:29.262Z,69.68
2023-03-25T14:04:57.154Z,69.46
2023-03-25T14:07:25.162Z,69.65
2023-03-25T14:09:55.415Z,68.84
2023-03-25T14:12:24.093Z,68.85
2023-03-25T14:14:52.809Z,68.35
2023-03-25T14:17:20.716Z,68.60
2023-03-25T14:19:48.707Z,67.50
2023-03-25T14:22:16.913Z,66.18
2023-03-25T14:24:45.348Z,65.13
2023-03-25T14:27:13.656Z,64.17
2023-03-25T14:29:41.690Z,63.54
2023-03-25T14:32:09.797Z,64.48
2023-03-25T14:34:39.365Z,64.68
2023-03-25T14:37:08.438Z,64.30
2023-03-25T14:39:36.557Z,64.37
2023-03-25T14:42:04.665Z,64.18
2023-03-25T14:44:33.288Z,64.01
2023-03-25T14:47:02.422Z,63.09
2023-03-25T14:49:31.460Z,63.84
2023-03-25T14:52:00.316Z,65.20
2023-03-25T14:54:30.073Z,65.67
2023-03-25T14:56:57.909Z,66.29
2023-03-25T14:59:25.741Z,66.53
2023-03-25T15:01:53.508Z,67.07
2023-03-25T15:04:21.631Z,68.42
2023-03-25T15:06:50.174Z,69.69
2023-03-25T15:09:17.974Z,70.35
2023-03-25T15:11:45.796Z,71.71
2023-03-25T15:14:13.733Z,71.91
2023-03-25T15:16:44.122Z,72.33
2023-03-25T15:19:11.954Z,73.01
2023-03-25T15:21:40.088Z,73.22
2023-03-25T15:24:08.070Z,73.29
2023-03-25T15:26:35.791Z,73.43
2023-03-25T15:29:04.326Z,73.23
2023-03-25T15:31:38.397Z,73.31
2023-03-25T15:34:06.502Z,73.07
2023-03-25T15:36:34.376Z,73.43
2023-03-25T15:39:02.227Z,73.67
2023-03-25T15:41:30.265Z,74.17
2023-03-25T15:44:01.184Z,74.22
2023-03-25T15:46:29.371Z,74.64
2023-03-25T15:48:57.415Z,74.93
2023-03-25T15:51:25.415Z,75.51
2023-03-25T15:53:54.290Z,75.28
2023-03-25T15:56:22.075Z,75.04
2023-03-25T15:58:51.271Z,75.96
2023-03-25T16:01:19.253Z,76.01
2023-03-25T16:03:47.529Z,76.03
2023-03-25T16:06:16.619Z,75.96
2023-03-25T16:08:44.614Z,75.95
2023-03-25T16:11:12.588Z,76.11
2023-03-25T16:13:40.523Z,76.04
2023-03-25T16:16:09.543Z,76.17
2023-03-25T16:18:38.082Z,75.52
2023-03-25T16:21:05.856Z,75.41
2023-03-25T16:23:33.819Z,75.53
2023-03-25T16:26:01.794Z,75.08
2023-03-25T16:28:29.698Z,75.79
2023-03-25T16:30:58.618Z,75.38
2023-03-25T16:33:26.601Z,75.25
2023-03-25T16:35:54.583Z,75.26
2023-03-25T16:38:23.015Z,75.34
2023-03-25T16:40:51.469Z,75.01
2023-03-25T16:43:21.614Z,74.57
2023-03-25T16:45:49.608Z,74.27
2023-03-25T16:48:17.699Z,74.00
2023-03-25T16:50:45.724Z,74.53
2023-03-25T16:53:13.652Z,74.79
2023-03-25T16:55:42.618Z,74.75
2023-03-25T16:58:10.505Z,74.86
2023-03-25T17:00:38.374Z,74.48
2023-03-25T17:03:06.819Z,75.04
2023-03-25T17:05:35.281Z,74.87
2023-03-25T17:08:04.788Z,74.24
2023-03-25T17:10:33.063Z,74.84
2023-03-25T17:13:01.003Z,74.43
2023-03-25T17:15:28.934Z,74.25
2023-03-25T17:18:00.469Z,74.72
2023-03-25T17:20:30.910Z,74.90
2023-03-25T17:22:59.752Z,74.59
2023-03-25T17:25:27.900Z,74.96
2023-03-25T17:27:55.851Z,74.68
2023-03-25T17:30:23.692Z,74.61
2023-03-25T17:32:53.669Z,74.77
2023-03-25T17:35:22.012Z,74.76
2023-03-25T17:37:49.853Z,74.64
2023-03-25T17:40:17.879Z,74.51
2023-03-25T17:42:46.191Z,74.18
2023-03-25T17:45:14.924Z,74.63
2023-03-25T17:47:43.810Z,74.69
2023-03-25T17:50:11.824Z,75.19
2023-03-25T17:52:39.715Z,75.02
2023-03-25T17:55:07.821Z,75.81
2023-03-25T17:57:37.508Z,76.05
2023-03-25T18:00:08.543Z,76.06
2023-03-25T18:02:36.448Z,76.20
2023-03-25T18:05:06.528Z,76.36
2023-03-25T18:07:34.588Z,76.78
2023-03-25T18:10:03.513Z,76.70
2023-03-25T18:12:31.403Z,76.75
2023-03-25T18:14:59.591Z,76.81
2023-03-25T18:17:27.800Z,77.34
2023-03-25T18:19:55.882Z,77.18
2023-03-25T18:22:24.573Z,78.12
2023-03-25T18:24:52.987Z,78.12
2023-03-25T18:27:25.632Z,77.81
2023-03-25T18:29:58.833Z,78.03
2023-03-25T18:32:29.282Z,78.34
2023-03-25T18:34:57.174Z,78.21
2023-03-25T18:37:25.293Z,78.47
2023-03-25T18:39:53.099Z,78.43
2023-03-25T18:42:22.625Z,77.80
2023-03-25T18:44:52.729Z,78.31
2023-03-25T18:47:20.821Z,77.75
2023-03-25T18:49:48.638Z,77.53
2023-03-25T18:52:16.622Z,76.80
2023-03-25T18:54:44.579Z,76.90
2023-03-25T18:57:13.274Z,76.77
2023-03-25T18:59:41.292Z,76.04
2023-03-25T19:02:09.075Z,76.36
2023-03-25T19:04:37.999Z,76.01
2023-03-25T19:07:06.710Z,76.39
2023-03-25T19:09:35.171Z,76.42
2023-03-25T19:12:02.869Z,76.43
2023-03-25T19:14:31.110Z,75.87
2023-03-25T19:17:04.104Z,76.15
2023-03-25T19:19:32.620Z,76.17
2023-03-25T19:22:00.921Z,75.94
2023-03-25T19:24:28.952Z,76.05
2023-03-25T19:26:57.347Z,75.98
2023-03-25T19:29:25.258Z,75.71
2023-03-25T19:31:53.168Z,75.35
2023-03-25T19:34:22.690Z,75.24
2023-03-25T19:36:50.986Z,75.28
2023-03-25T19:39:19.029Z,75.44
2023-03-25T19:41:48.416Z,75.29
2023-03-25T19:44:16.827Z,75.11
2023-03-25T19:46:45.383Z,75.51
2023-03-25T19:49:13.534Z,75.76
2023-03-25T19:51:43.554Z,75.67
2023-03-25T19:54:13.838Z,75.88
2023-03-25T19:56:42.121Z,75.24
2023-03-25T19:59:17.956Z,75.61
2023-03-25T20:01:46.140Z,75.53
2023-03-25T20:04:15.484Z,75.36
2023-03-25T20:06:45.618Z,75.33
2023-03-25T20:09:14.961Z,76.04
2023-03-25T20:11:42.858Z,76.11
2023-03-25T20:14:10.956Z,76.88
2023-03-25T20:16:38.964Z,76.94
2023-03-25T20:19:06.787Z,77.28
2023-03-25T20:21:34.695Z,77.85
2023-03-25T20:24:03.130Z,78.09
2023-03-25T20:26:30.966Z,78.21
2023-03-25T20:28:58.712Z,78.18
2023-03-25T20:31:28.894Z,78.71
2023-03-25T20:33:56.970Z,79.11
2023-03-25T20:36:25.520Z,79.18
2023-03-25T20:38:57.628Z,79.42
2023-03-25T20:41:26.470Z,79.49
2023-03-25T20:43:54.498Z,79.71
2023-03-25T20:46:25.898Z,79.54
2023-03-25T20:48:53.748Z,79.48
2023-03-25T20:51:21.670Z,79.65
2023-03-25T20:53:49.858Z,79.58
2023-03-25T20:56:17.880Z,79.59
2023-03-25T20:58:47.017Z,79.44
2023-03-25T21:01:15.736Z,79.46
2023-03-25T21:03:44.126Z,79.36
2023-03-25T21:06:22.851Z,79.59
2023-03-25T21:08:53.284Z,79.27
2023-03-25T21:11:21.239Z,79.49
2023-03-25T21:13:49.117Z,79.23
2023-03-25T21:16:17.757Z,79.04
2023-03-25T21:18:46.384Z,78.97
2023-03-25T21:21:15.705Z,78.47
2023-03-25T21:23:44.050Z,78.47
2023-03-25T21:26:12.233Z,78.36
2023-03-25T21:28:40.117Z,78.22
2023-03-25T21:31:08.157Z,78.06
2023-03-25T21:33:37.958Z,78.56
2023-03-25T21:36:06.004Z,78.52
2023-03-25T21:38:33.865Z,78.33
2023-03-25T21:41:03.031Z,78.86
2023-03-25T21:43:30.810Z,78.48
2023-03-25T21:46:05.561Z,78.27
2023-03-25T21:48:33.917Z,78.53
2023-03-25T21:51:01.854Z,78.49
2023-03-25T21:53:31.397Z,78.54
2023-03-25T21:56:01.171Z,78.68
2023-03-25T21:58:28.874Z,78.57
2023-03-25T22:00:58.394Z,78.54
2023-03-25T22:03:30.376Z,78.62
2023-03-25T22:06:02.058Z,79.59
2023-03-25T22:08:30.691Z,79.75
2023-03-25T22:10:58.663Z,79.99
2023-03-25T22:13:26.803Z,79.99
2023-03-25T22:15:54.981Z,80.24
2023-03-25T22:18:23.468Z,80.39
2023-03-25T22:20:51.846Z,80.37
2023-03-25T22:23:21.241Z,80.63
2023-03-25T22:25:49.146Z,80.54
2023-03-25T22:28:17.557Z,80.77
2023-03-25T22:30:45.763Z,80.95
2023-03-25T22:33:13.744Z,80.85
2023-03-25T22:35:41.692Z,80.95
2023-03-25T22:38:09.595Z,80.79
2023-03-25T22:40:37.403Z,80.83
2023-03-25T22:43:05.808Z,80.81
2023-03-25T22:45:34.269Z,80.77
2023-03-25T22:48:02.129Z,80.58
2023-03-25T22:50:31.635Z,80.66
2023-03-25T22:52:59.657Z,80.67
2023-03-25T22:55:27.767Z,80.36
2023-03-25T22:57:55.842Z,80.71
2023-03-25T23:00:23.774Z,80.77
2023-03-25T23:02:51.671Z,80.73
2023-03-25T23:05:19.741Z,80.42
2023-03-25T23:07:48.118Z,80.67
2023-03-25T23:10:19.041Z,80.17
2023-03-25T23:12:47.135Z,80.55
2023-03-25T23:15:15.490Z,80.54
2023-03-25T23:17:43.300Z,80.30
2023-03-25T23:20:12.105Z,80.10
2023-03-25T23:22:40.253Z,80.60
2023-03-25T23:25:09.784Z,80.55
2023-03-25T23:27:37.528Z,80.46
2023-03-25T23:30:05.502Z,80.29
2023-03-25T23:32:33.903Z,80.43
2023-03-25T23:35:03.487Z,80.14
2023-03-25T23:37:31.603Z,79.91
2023-03-25T23:39:59.293Z,80.53
2023-03-25T23:42:34.990Z,80.42
2023-03-25T23:45:04.464Z,80.46
2023-03-25T23:47:32.293Z,80.42
2023-03-25T23:50:02.220Z,80.38
2023-03-25T23:52:30.210Z,80.20
2023-03-25T23:54:58.006Z,80.20
2023-03-25T23:57:26.385Z,79.78
2023-03-25T23:59:54.249Z,79.89
